createdAt,value
2022-08-31T00:00:09.552Z,12.04
2022-08-31T00:02:54.843Z,11.99
2022-08-31T00:05:21.745Z,11.91
2022-08-31T00:07:48.258Z,11.92
2022-08-31T00:10:18.426Z,11.96
2022-08-31T00:12:47.436Z,11.93
2022-08-31T00:15:17.524Z,11.89
2022-08-31T00:17:44.301Z,11.82
2022-08-31T00:20:32.332Z,11.81
2022-08-31T00:23:00.506Z,11.79
2022-08-31T00:25:26.955Z,11.74
2022-08-31T00:27:55.568Z,11.70
2022-08-31T00:30:22.273Z,11.74
2022-08-31T00:32:48.760Z,11.66
2022-08-31T00:35:16.520Z,11.55
2022-08-31T00:37:43.070Z,11.47
2022-08-31T00:40:10.204Z,11.53
2022-08-31T00:42:36.844Z,11.59
2022-08-31T00:45:05.188Z,11.63
2022-08-31T00:47:31.993Z,11.55
2022-08-31T00:49:59.547Z,11.52
2022-08-31T00:52:36.471Z,11.54
2022-08-31T00:55:15.441Z,11.47
2022-08-31T00:57:45.951Z,11.44
2022-08-31T01:00:16.545Z,11.37
2022-08-31T01:02:43.547Z,11.39
2022-08-31T01:05:11.224Z,11.32
2022-08-31T01:07:38.415Z,11.31
2022-08-31T01:10:05.849Z,11.22
2022-08-31T01:12:32.640Z,11.21
2022-08-31T01:15:02.881Z,11.22
2022-08-31T01:17:32.009Z,11.04
2022-08-31T01:20:11.640Z,10.94
2022-08-31T01:22:56.596Z,10.90
2022-08-31T01:25:23.533Z,10.90
2022-08-31T01:28:03.919Z,10.91
2022-08-31T01:30:30.467Z,10.91
2022-08-31T01:32:56.999Z,10.90
2022-08-31T01:35:23.551Z,10.77
2022-08-31T01:37:50.735Z,10.65
2022-08-31T01:40:17.919Z,10.55
2022-08-31T01:42:44.452Z,10.50
2022-08-31T01:45:11.863Z,10.39
2022-08-31T01:47:40.423Z,10.31
2022-08-31T01:50:07.943Z,10.31
2022-08-31T01:52:37.555Z,10.24
2022-08-31T01:55:06.458Z,10.23
2022-08-31T01:57:34.499Z,10.27
2022-08-31T02:00:08.647Z,10.21
2022-08-31T02:02:35.600Z,10.19
2022-08-31T02:05:02.238Z,10.09
2022-08-31T02:07:28.775Z,9.91
2022-08-31T02:09:55.269Z,9.89
2022-08-31T02:12:21.956Z,9.85
2022-08-31T02:14:48.554Z,9.91
2022-08-31T02:17:15.402Z,9.96
2022-08-31T02:19:41.889Z,9.91
2022-08-31T02:22:08.387Z,9.92
2022-08-31T02:24:34.868Z,9.89
2022-08-31T02:27:01.430Z,9.88
2022-08-31T02:29:28.264Z,9.85
2022-08-31T02:31:54.824Z,9.77
2022-08-31T02:34:21.332Z,9.84
2022-08-31T02:36:47.790Z,9.82
2022-08-31T02:39:14.481Z,9.88
2022-08-31T02:41:42.150Z,9.85
2022-08-31T02:44:08.742Z,9.78
2022-08-31T02:46:35.441Z,9.71
2022-08-31T02:49:02.446Z,9.67
2022-08-31T02:51:29.387Z,9.54
2022-08-31T02:53:56.090Z,9.49
2022-08-31T02:56:23.753Z,9.50
2022-08-31T02:58:54.905Z,9.43
2022-08-31T03:01:23.437Z,9.37
2022-08-31T03:03:50.626Z,9.34
2022-08-31T03:06:18.599Z,9.29
2022-08-31T03:08:45.967Z,9.30
2022-08-31T03:11:13.224Z,9.18
2022-08-31T03:13:41.085Z,9.20
2022-08-31T03:16:09.491Z,9.22
2022-08-31T03:18:35.908Z,9.26
2022-08-31T03:21:02.510Z,9.17
2022-08-31T03:23:29.021Z,9.10
2022-08-31T03:25:55.607Z,9.08
2022-08-31T03:28:22.528Z,9.04
2022-08-31T03:30:49.368Z,9.06
2022-08-31T03:33:16.076Z,9.16
2022-08-31T03:35:44.380Z,8.99
2022-08-31T03:38:12.610Z,8.97
2022-08-31T03:40:41.626Z,9.00
2022-08-31T03:43:11.590Z,8.95
2022-08-31T03:45:40.049Z,8.93
2022-08-31T03:48:11.970Z,8.97
2022-08-31T03:50:40.889Z,8.93
2022-08-31T03:53:07.587Z,8.85
2022-08-31T03:55:36.279Z,8.85
2022-08-31T03:58:04.080Z,8.89
2022-08-31T04:00:31.666Z,8.85
2022-08-31T04:02:59.691Z,8.93
2022-08-31T04:05:28.012Z,8.83
2022-08-31T04:07:54.727Z,8.84
2022-08-31T04:10:23.054Z,8.85
2022-08-31T04:12:50.296Z,8.87
2022-08-31T04:15:17.848Z,8.83
2022-08-31T04:17:45.466Z,8.77
2022-08-31T04:20:12.174Z,8.67
2022-08-31T04:22:38.693Z,8.60
2022-08-31T04:25:05.661Z,8.62
2022-08-31T04:27:32.167Z,8.68
2022-08-31T04:29:58.668Z,8.67
2022-08-31T04:32:25.120Z,8.66
2022-08-31T04:34:56.294Z,8.73
2022-08-31T04:37:23.280Z,8.69
2022-08-31T04:39:50.730Z,8.79
2022-08-31T04:42:17.808Z,8.70
2022-08-31T04:44:44.249Z,8.73
2022-08-31T04:47:10.703Z,8.77
2022-08-31T04:49:37.196Z,8.78
2022-08-31T04:52:03.953Z,8.75
2022-08-31T04:54:30.583Z,8.82
2022-08-31T04:56:59.217Z,8.87
2022-08-31T04:59:27.331Z,8.82
2022-08-31T05:01:55.124Z,8.86
2022-08-31T05:04:24.568Z,8.90
2022-08-31T05:06:51.191Z,8.96
2022-08-31T05:09:21.795Z,8.99
2022-08-31T05:11:50.351Z,8.99
2022-08-31T05:14:17.164Z,9.17
2022-08-31T05:16:44.231Z,9.21
2022-08-31T05:19:11.156Z,9.21
2022-08-31T05:21:40.626Z,9.24
2022-08-31T05:24:16.520Z,9.29
2022-08-31T05:26:48.053Z,9.39
2022-08-31T05:29:16.154Z,9.49
2022-08-31T05:31:44.993Z,9.60
2022-08-31T05:34:15.100Z,9.72
2022-08-31T05:36:42.644Z,9.93
2022-08-31T05:39:11.646Z,10.02
2022-08-31T05:41:43.346Z,10.13
2022-08-31T05:44:10.713Z,10.21
2022-08-31T05:46:38.184Z,10.38
2022-08-31T05:49:06.802Z,10.49
2022-08-31T05:51:38.588Z,10.66
2022-08-31T05:54:06.164Z,10.81
2022-08-31T05:56:32.680Z,10.98
2022-08-31T05:58:59.211Z,11.12
2022-08-31T06:01:31.851Z,11.26
2022-08-31T06:03:59.375Z,11.36
2022-08-31T06:06:26.661Z,11.57
2022-08-31T06:08:53.514Z,11.75
2022-08-31T06:11:23.108Z,11.93
2022-08-31T06:13:52.659Z,12.14
2022-08-31T06:16:20.492Z,12.12
2022-08-31T06:18:53.518Z,12.12
2022-08-31T06:21:24.638Z,12.22
2022-08-31T06:23:53.403Z,12.39
2022-08-31T06:26:21.467Z,12.60
2022-08-31T06:28:51.763Z,12.81
2022-08-31T06:31:26.597Z,13.06
2022-08-31T06:33:55.415Z,13.24
2022-08-31T06:36:25.326Z,13.65
2022-08-31T06:38:53.065Z,14.18
2022-08-31T06:41:23.142Z,14.22
2022-08-31T06:43:50.319Z,14.27
2022-08-31T06:46:19.706Z,14.42
2022-08-31T06:48:46.746Z,14.61
2022-08-31T06:51:13.807Z,14.74
2022-08-31T06:53:42.453Z,14.96
2022-08-31T06:56:20.662Z,15.27
2022-08-31T06:58:53.733Z,15.56
2022-08-31T07:01:35.161Z,15.78
2022-08-31T07:04:07.074Z,16.25
2022-08-31T07:06:42.092Z,16.79
2022-08-31T07:09:11.374Z,17.22
2022-08-31T07:11:44.729Z,17.65
2022-08-31T07:14:14.152Z,18.06
2022-08-31T07:16:41.255Z,18.39
2022-08-31T07:19:08.365Z,18.96
2022-08-31T07:21:39.937Z,19.22
2022-08-31T07:24:07.261Z,19.51
2022-08-31T07:26:41.879Z,19.58
2022-08-31T07:29:09.968Z,20.13
2022-08-31T07:31:46.207Z,20.17
2022-08-31T07:34:19.187Z,19.87
2022-08-31T07:37:05.826Z,19.58
2022-08-31T07:39:52.006Z,19.38
2022-08-31T07:42:24.056Z,19.13
2022-08-31T07:44:53.781Z,18.59
2022-08-31T07:47:22.607Z,18.64
2022-08-31T07:49:52.577Z,18.44
2022-08-31T07:52:32.866Z,18.63
2022-08-31T07:55:06.587Z,18.68
2022-08-31T07:57:44.316Z,18.50
2022-08-31T08:00:15.299Z,18.57
2022-08-31T08:02:50.769Z,18.62
2022-08-31T08:05:27.397Z,18.89
2022-08-31T08:08:06.022Z,18.76
2022-08-31T08:10:38.373Z,18.75
2022-08-31T08:13:06.895Z,18.58
2022-08-31T08:15:37.242Z,18.62
2022-08-31T08:18:05.761Z,18.50
2022-08-31T08:20:37.703Z,18.68
2022-08-31T08:23:14.604Z,18.73
2022-08-31T08:25:44.244Z,19.21
2022-08-31T08:31:06.047Z,19.20
2022-08-31T08:33:34.477Z,19.31
2022-08-31T08:36:03.059Z,19.48
2022-08-31T08:38:31.145Z,19.30
2022-08-31T08:40:59.608Z,19.24
2022-08-31T08:43:38.287Z,19.09
2022-08-31T08:46:31.240Z,19.46
2022-08-31T08:49:00.392Z,19.71
2022-08-31T08:51:36.554Z,19.47
2022-08-31T08:54:14.585Z,19.01
2022-08-31T08:56:47.614Z,18.82
2022-08-31T08:59:19.643Z,18.91
2022-08-31T09:01:49.401Z,19.09
2022-08-31T09:04:19.075Z,19.25
2022-08-31T09:07:04.841Z,19.80
2022-08-31T09:10:11.908Z,19.87
2022-08-31T09:12:50.711Z,19.85
2022-08-31T09:15:46.807Z,19.66
2022-08-31T09:18:52.393Z,19.95
2022-08-31T09:21:23.644Z,20.08
2022-08-31T09:24:01.987Z,20.36
2022-08-31T09:26:33.806Z,20.19
2022-08-31T09:29:03.735Z,19.72
2022-08-31T09:31:38.376Z,19.88
2022-08-31T09:34:28.799Z,19.87
2022-08-31T09:37:16.354Z,20.08
2022-08-31T09:39:47.595Z,20.49
2022-08-31T09:42:34.002Z,20.75
2022-08-31T09:45:11.579Z,20.07
2022-08-31T09:47:52.917Z,20.65
2022-08-31T09:50:27.379Z,20.87
2022-08-31T09:53:40.096Z,21.11
2022-08-31T09:56:15.307Z,21.30
2022-08-31T09:58:50.366Z,21.08
2022-08-31T10:01:43.196Z,21.33
2022-08-31T10:04:26.707Z,21.75
2022-08-31T10:07:47.912Z,21.95
2022-08-31T10:10:31.140Z,21.59
2022-08-31T10:13:07.285Z,20.88
2022-08-31T10:15:59.988Z,20.75
2022-08-31T10:18:44.975Z,20.75
2022-08-31T10:21:21.173Z,20.95
2022-08-31T10:24:10.854Z,20.98
2022-08-31T10:26:46.390Z,20.95
2022-08-31T10:29:23.438Z,21.03
2022-08-31T10:31:53.674Z,21.25
2022-08-31T10:34:59.711Z,21.58
2022-08-31T10:37:35.664Z,21.92
2022-08-31T10:40:16.409Z,22.53
2022-08-31T10:42:50.170Z,22.48
2022-08-31T10:45:23.479Z,22.08
2022-08-31T10:47:52.819Z,22.33
2022-08-31T10:50:26.180Z,23.58
2022-08-31T10:53:16.908Z,24.44
2022-08-31T10:55:56.167Z,25.81
2022-08-31T10:58:51.086Z,25.88
2022-08-31T11:01:32.418Z,24.58
2022-08-31T11:04:20.775Z,24.47
2022-08-31T11:06:58.980Z,24.85
2022-08-31T11:09:57.945Z,23.93
2022-08-31T11:12:33.323Z,24.95
2022-08-31T11:15:23.016Z,25.02
2022-08-31T11:18:25.780Z,26.33
2022-08-31T11:21:17.236Z,25.68
2022-08-31T11:24:11.970Z,26.62
2022-08-31T11:27:23.404Z,26.83
2022-08-31T11:30:02.810Z,25.46
2022-08-31T11:32:37.667Z,25.99
2022-08-31T11:35:10.211Z,28.03
2022-08-31T11:37:52.335Z,29.62
2022-08-31T11:40:44.043Z,29.70
2022-08-31T11:43:16.983Z,31.17
2022-08-31T11:45:43.758Z,27.96
2022-08-31T11:48:51.335Z,29.81
2022-08-31T11:51:45.865Z,29.74
2022-08-31T11:54:15.770Z,28.82
2022-08-31T11:56:45.246Z,29.16
2022-08-31T11:59:35.333Z,28.55
2022-08-31T12:02:20.314Z,30.37
2022-08-31T12:04:52.173Z,29.81
2022-08-31T12:07:29.647Z,29.65
2022-08-31T12:10:03.421Z,30.28
2022-08-31T12:12:51.641Z,32.83
2022-08-31T12:15:36.877Z,29.62
2022-08-31T12:18:41.907Z,29.84
2022-08-31T12:21:39.657Z,29.58
2022-08-31T12:24:26.342Z,27.40
2022-08-31T12:27:20.027Z,29.32
2022-08-31T12:29:46.766Z,28.13
2022-08-31T12:32:25.577Z,29.65
2022-08-31T12:35:03.274Z,29.37
2022-08-31T12:37:33.034Z,29.83
2022-08-31T12:40:27.108Z,31.20
2022-08-31T12:42:58.882Z,30.10
2022-08-31T12:45:28.328Z,31.20
2022-08-31T12:48:01.335Z,31.98
2022-08-31T12:50:45.192Z,31.75
2022-08-31T12:53:23.787Z,32.25
2022-08-31T12:56:05.816Z,33.37
2022-08-31T12:58:54.015Z,32.33
2022-08-31T13:01:24.171Z,32.14
2022-08-31T13:03:58.498Z,32.12
2022-08-31T13:06:26.527Z,30.24
2022-08-31T13:08:54.895Z,29.37
2022-08-31T13:11:40.754Z,29.32
2022-08-31T13:14:26.730Z,31.93
2022-08-31T13:17:05.914Z,30.63
2022-08-31T13:19:36.322Z,33.65
2022-08-31T13:22:06.881Z,35.23
2022-08-31T13:24:37.096Z,36.34
2022-08-31T13:27:21.997Z,34.17
2022-08-31T13:29:50.667Z,34.09
2022-08-31T13:32:31.583Z,35.52
2022-08-31T13:35:13.496Z,34.63
2022-08-31T13:38:07.916Z,33.74
2022-08-31T13:40:39.370Z,35.25
2022-08-31T13:43:08.959Z,36.59
2022-08-31T13:45:53.717Z,36.72
2022-08-31T13:48:32.340Z,37.56
2022-08-31T13:51:13.444Z,35.56
2022-08-31T13:53:45.005Z,35.25
2022-08-31T13:56:48.520Z,36.25
2022-08-31T13:59:23.148Z,36.76
2022-08-31T14:02:16.186Z,35.41
2022-08-31T14:04:48.916Z,35.00
2022-08-31T14:07:25.343Z,35.15
2022-08-31T14:10:00.908Z,34.39
2022-08-31T14:12:45.948Z,32.99
2022-08-31T14:15:17.472Z,31.44
2022-08-31T14:20:53.414Z,34.32
2022-08-31T14:23:32.393Z,33.70
2022-08-31T14:26:12.155Z,34.49
2022-08-31T14:28:41.753Z,34.41
2022-08-31T14:31:24.394Z,32.80
2022-08-31T14:34:20.028Z,36.35
2022-08-31T14:36:58.318Z,38.00
2022-08-31T14:39:29.981Z,36.29
2022-08-31T14:42:00.515Z,36.28
2022-08-31T14:44:31.901Z,37.09
2022-08-31T14:46:59.056Z,35.24
2022-08-31T14:49:29.142Z,33.79
2022-08-31T14:52:06.608Z,35.02
2022-08-31T14:54:35.058Z,33.81
2022-08-31T14:57:25.193Z,32.88
2022-08-31T14:59:57.980Z,35.00
2022-08-31T15:02:26.921Z,35.69
2022-08-31T15:04:53.567Z,36.40
2022-08-31T15:07:20.594Z,35.57
2022-08-31T15:09:47.851Z,36.45
2022-08-31T15:12:16.929Z,36.81
2022-08-31T15:14:45.026Z,35.38
2022-08-31T15:17:19.026Z,33.10
2022-08-31T15:19:50.111Z,36.17
2022-08-31T15:22:17.402Z,36.31
2022-08-31T15:24:44.862Z,35.74
2022-08-31T15:27:15.583Z,33.72
2022-08-31T15:29:43.226Z,35.61
2022-08-31T15:32:16.421Z,36.03
2022-08-31T15:34:52.182Z,34.51
2022-08-31T15:37:19.402Z,35.07
2022-08-31T15:39:48.993Z,35.78
2022-08-31T15:42:20.250Z,34.50
2022-08-31T15:44:55.999Z,34.96
2022-08-31T15:47:47.241Z,35.41
2022-08-31T15:50:19.017Z,36.04
2022-08-31T15:52:51.058Z,36.32
2022-08-31T15:55:23.502Z,36.02
2022-08-31T15:57:54.465Z,34.82
2022-08-31T16:00:26.162Z,35.19
2022-08-31T16:02:55.199Z,34.91
2022-08-31T16:05:22.136Z,35.40
2022-08-31T16:07:51.243Z,33.14
2022-08-31T16:10:20.310Z,33.51
2022-08-31T16:12:47.174Z,34.23
2022-08-31T16:15:15.460Z,34.74
2022-08-31T16:17:43.961Z,35.17
2022-08-31T16:20:12.295Z,35.21
2022-08-31T16:22:39.915Z,35.12
2022-08-31T16:25:08.388Z,35.03
2022-08-31T16:27:34.994Z,34.50
2022-08-31T16:30:02.058Z,33.88
2022-08-31T16:32:30.300Z,34.47
2022-08-31T16:34:56.796Z,33.48
2022-08-31T16:37:23.826Z,32.63
2022-08-31T16:39:50.355Z,33.78
2022-08-31T16:42:17.582Z,33.39
2022-08-31T16:44:46.857Z,33.00
2022-08-31T16:47:16.867Z,33.57
2022-08-31T16:49:43.492Z,32.14
2022-08-31T16:52:21.183Z,33.01
2022-08-31T16:54:50.930Z,32.62
2022-08-31T16:57:20.816Z,33.08
2022-08-31T16:59:48.491Z,32.76
2022-08-31T17:02:16.433Z,31.58
2022-08-31T17:04:53.111Z,32.00
2022-08-31T17:07:22.590Z,30.96
2022-08-31T17:09:49.141Z,31.42
2022-08-31T17:12:19.080Z,31.41
2022-08-31T17:14:48.303Z,30.51
2022-08-31T17:17:18.074Z,30.99
2022-08-31T17:19:46.127Z,31.19
2022-08-31T17:22:20.050Z,31.00
2022-08-31T17:24:49.557Z,30.40
2022-08-31T17:27:20.163Z,30.29
2022-08-31T17:29:51.806Z,29.73
2022-08-31T17:32:22.385Z,29.46
2022-08-31T17:34:51.562Z,28.96
2022-08-31T17:37:22.937Z,28.58
2022-08-31T17:39:52.865Z,27.63
2022-08-31T17:42:23.031Z,25.57
2022-08-31T17:44:52.960Z,24.40
2022-08-31T17:47:21.514Z,23.34
2022-08-31T17:49:50.529Z,22.15
2022-08-31T17:52:20.177Z,21.46
2022-08-31T17:54:46.896Z,20.98
2022-08-31T17:57:15.281Z,20.52
2022-08-31T17:59:48.991Z,20.01
2022-08-31T18:02:34.495Z,19.66
2022-08-31T18:05:02.644Z,19.24
2022-08-31T18:07:29.561Z,18.93
2022-08-31T18:09:56.523Z,18.62
2022-08-31T18:12:25.513Z,18.42
2022-08-31T18:14:58.084Z,18.16
2022-08-31T18:17:26.448Z,17.84
2022-08-31T18:19:52.986Z,17.68
2022-08-31T18:22:19.747Z,17.50
2022-08-31T18:24:46.393Z,17.23
2022-08-31T18:27:15.240Z,17.09
2022-08-31T18:29:42.619Z,16.98
2022-08-31T18:32:09.352Z,16.82
2022-08-31T18:34:39.969Z,16.56
2022-08-31T18:37:07.361Z,16.42
2022-08-31T18:39:59.011Z,16.28
2022-08-31T18:42:45.515Z,16.18
2022-08-31T18:45:20.930Z,16.03
2022-08-31T18:50:45.184Z,15.73
2022-08-31T18:53:28.344Z,15.62
2022-08-31T18:56:05.622Z,15.48
2022-08-31T18:58:32.118Z,15.41
2022-08-31T19:00:59.125Z,15.13
2022-08-31T19:03:27.327Z,14.98
2022-08-31T19:05:54.138Z,15.01
2022-08-31T19:08:20.584Z,15.03
2022-08-31T19:10:49.098Z,14.93
2022-08-31T19:13:15.856Z,14.88
2022-08-31T19:15:42.386Z,14.71
2022-08-31T19:18:08.950Z,14.75
2022-08-31T19:20:35.616Z,14.74
2022-08-31T19:23:02.425Z,14.65
2022-08-31T19:25:29.160Z,14.57
2022-08-31T19:27:55.815Z,14.46
2022-08-31T19:30:27.906Z,14.47
2022-08-31T19:32:56.417Z,14.46
2022-08-31T19:35:25.865Z,14.42
2022-08-31T19:37:53.761Z,14.44
2022-08-31T19:40:20.676Z,14.31
2022-08-31T19:43:43.592Z,14.21
2022-08-31T19:45:43.750Z,14.17
2022-08-31T19:48:12.228Z,14.15
2022-08-31T19:50:41.868Z,14.02
2022-08-31T19:53:12.549Z,14.04
2022-08-31T19:55:50.014Z,13.90
2022-08-31T19:58:18.691Z,13.76
2022-08-31T20:00:45.824Z,13.82
2022-08-31T20:03:15.488Z,13.83
2022-08-31T20:05:43.344Z,13.78
2022-08-31T20:08:10.959Z,13.61
2022-08-31T20:10:45.783Z,13.67
2022-08-31T20:13:12.908Z,13.65
2022-08-31T20:15:41.637Z,13.71
2022-08-31T20:18:11.116Z,13.66
2022-08-31T20:20:48.170Z,13.54
2022-08-31T20:23:17.257Z,13.40
2022-08-31T20:25:45.532Z,13.42
2022-08-31T20:28:12.808Z,13.45
2022-08-31T20:30:41.500Z,13.26
2022-08-31T20:33:09.612Z,13.36
2022-08-31T20:35:41.450Z,13.22
2022-08-31T20:38:13.168Z,13.05
2022-08-31T20:40:42.127Z,13.10
2022-08-31T20:43:10.604Z,12.94
2022-08-31T20:45:37.984Z,12.85
2022-08-31T20:48:23.800Z,12.75
2022-08-31T20:50:50.399Z,12.79
2022-08-31T20:53:26.431Z,12.71
2022-08-31T20:56:06.876Z,12.63
2022-08-31T20:58:33.475Z,12.54
2022-08-31T21:01:06.002Z,12.55
2022-08-31T21:03:33.494Z,12.47
2022-08-31T21:06:08.139Z,12.39
2022-08-31T21:08:38.222Z,12.33
2022-08-31T21:11:15.563Z,12.29
2022-08-31T21:13:42.900Z,12.36
2022-08-31T21:16:10.216Z,12.31
2022-08-31T21:18:37.046Z,12.30
2022-08-31T21:21:09.949Z,12.28
2022-08-31T21:23:38.315Z,12.23
2022-08-31T21:26:05.086Z,12.21
2022-08-31T21:28:31.723Z,12.21
2022-08-31T21:31:16.573Z,12.36
2022-08-31T21:33:57.283Z,12.35
2022-08-31T21:36:26.511Z,12.24
2022-08-31T21:38:57.382Z,12.25
2022-08-31T21:41:27.122Z,12.39
2022-08-31T21:43:55.551Z,12.26
2022-08-31T21:46:23.417Z,12.07
2022-08-31T21:48:52.135Z,12.14
2022-08-31T21:51:26.120Z,12.03
2022-08-31T21:54:07.375Z,11.98
2022-08-31T21:56:40.132Z,12.03
2022-08-31T21:59:06.893Z,11.89
2022-08-31T22:01:35.311Z,12.02
2022-08-31T22:04:02.531Z,12.01
2022-08-31T22:06:31.194Z,12.13
2022-08-31T22:09:05.740Z,11.95
2022-08-31T22:11:37.139Z,11.89
2022-08-31T22:14:07.640Z,11.76
2022-08-31T22:16:37.435Z,11.69
2022-08-31T22:19:05.677Z,11.62
2022-08-31T22:21:34.669Z,11.61
2022-08-31T22:24:07.954Z,11.56
2022-08-31T22:26:37.888Z,11.52
2022-08-31T22:29:06.811Z,11.52
2022-08-31T22:31:37.235Z,11.51
2022-08-31T22:34:05.998Z,11.50
2022-08-31T22:36:32.828Z,11.49
2022-08-31T22:39:03.330Z,11.48
2022-08-31T22:41:32.724Z,11.39
2022-08-31T22:44:00.299Z,11.35
2022-08-31T22:46:28.310Z,11.34
2022-08-31T22:48:55.490Z,11.36
2022-08-31T22:51:22.555Z,11.29
2022-08-31T22:53:51.516Z,11.32
2022-08-31T22:56:27.047Z,11.29
2022-08-31T22:58:55.989Z,11.24
2022-08-31T23:01:27.019Z,11.19
2022-08-31T23:03:57.008Z,11.20
2022-08-31T23:06:25.643Z,11.18
2022-08-31T23:08:54.011Z,11.15
2022-08-31T23:11:20.933Z,11.02
2022-08-31T23:13:52.653Z,11.07
2022-08-31T23:16:24.068Z,11.12
2022-08-31T23:18:52.599Z,11.03
2022-08-31T23:21:19.430Z,10.98
2022-08-31T23:23:45.967Z,10.92
2022-08-31T23:26:12.831Z,10.92
2022-08-31T23:28:40.036Z,10.93
2022-08-31T23:31:09.924Z,10.99
2022-08-31T23:33:36.608Z,10.86
2022-08-31T23:36:05.106Z,10.96
2022-08-31T23:38:32.940Z,10.99
2022-08-31T23:41:00.394Z,10.97
2022-08-31T23:43:27.105Z,10.98
2022-08-31T23:45:55.292Z,10.92
2022-08-31T23:48:23.006Z,10.91
2022-08-31T23:50:50.938Z,10.83
2022-08-31T23:53:17.851Z,10.81
2022-08-31T23:55:45.403Z,10.77
2022-08-31T23:58:14.024Z,10.76
